sensor_id;sensor_type;location;lat;lon;timestamp;pressure;altitude;pressure_sealevel;temperature;humidity
18167;BME280;9208;42.688;23.404;2023-06-14T00:00:44;95189.22;;;19.22;100.00
18167;BME280;9208;42.688;23.404;2023-06-14T00:03:10;95187.53;;;19.19;100.00
18167;BME280;9208;42.688;23.404;2023-06-14T00:05:38;95193.63;;;19.18;100.00
18167;BME280;9208;42.688;23.404;2023-06-14T00:08:09;95188.19;;;19.12;100.00
18167;BME280;9208;42.688;23.404;2023-06-14T00:10:38;95191.72;;;19.13;100.00
18167;BME280;9208;42.688;23.404;2023-06-14T00:13:07;95185.22;;;19.10;100.00
18167;BME280;9208;42.688;23.404;2023-06-14T00:15:36;95176.25;;;19.04;100.00
18167;BME280;9208;42.688;23.404;2023-06-14T00:18:02;95180.84;;;19.02;100.00
18167;BME280;9208;42.688;23.404;2023-06-14T00:20:28;95178.63;;;19.00;100.00
18167;BME280;9208;42.688;23.404;2023-06-14T00:22:54;95172.88;;;18.98;100.00
18167;BME280;9208;42.688;23.404;2023-06-14T00:25:22;95171.03;;;19.01;100.00
18167;BME280;9208;42.688;23.404;2023-06-14T00:27:48;95163.66;;;19.03;100.00
18167;BME280;9208;42.688;23.404;2023-06-14T00:30:14;95171.03;;;19.01;100.00
18167;BME280;9208;42.688;23.404;2023-06-14T00:32:40;95177.47;;;18.96;100.00
18167;BME280;9208;42.688;23.404;2023-06-14T00:35:05;95173.81;;;19.01;100.00
18167;BME280;9208;42.688;23.404;2023-06-14T00:37:33;95171.03;;;19.01;100.00
18167;BME280;9208;42.688;23.404;2023-06-14T00:39:58;95166.34;;;18.96;100.00
18167;BME280;9208;42.688;23.404;2023-06-14T00:42:27;95166.88;;;18.94;100.00
18167;BME280;9208;42.688;23.404;2023-06-14T00:44:53;95163.91;;;18.92;100.00
18167;BME280;9208;42.688;23.404;2023-06-14T00:47:19;95164.31;;;18.96;100.00
18167;BME280;9208;42.688;23.404;2023-06-14T00:49:48;95165.41;;;18.93;100.00
18167;BME280;9208;42.688;23.404;2023-06-14T00:52:15;95159.63;;;18.91;100.00
18167;BME280;9208;42.688;23.404;2023-06-14T00:54:42;95155.16;;;18.88;100.00
18167;BME280;9208;42.688;23.404;2023-06-14T00:57:12;95155.16;;;18.88;100.00
18167;BME280;9208;42.688;23.404;2023-06-14T00:59:42;95157.78;;;18.94;100.00
18167;BME280;9208;42.688;23.404;2023-06-14T01:02:08;95155.38;;;18.90;100.00
18167;BME280;9208;42.688;23.404;2023-06-14T01:04:33;95162.63;;;18.93;100.00
18167;BME280;9208;42.688;23.404;2023-06-14T01:07:07;95155.59;;;18.92;100.00
18167;BME280;9208;42.688;23.404;2023-06-14T01:10:44;95154.59;;;18.90;100.00
18167;BME280;9208;42.688;23.404;2023-06-14T01:12:58;95157.59;;;18.92;100.00
18167;BME280;9208;42.688;23.404;2023-06-14T01:15:24;95152.47;;;18.96;100.00
18167;BME280;9208;42.688;23.404;2023-06-14T01:17:51;95151.72;;;18.95;100.00
18167;BME280;9208;42.688;23.404;2023-06-14T01:20:22;95147.84;;;18.98;100.00
18167;BME280;9208;42.688;23.404;2023-06-14T01:22:51;95145.81;;;18.99;100.00
18167;BME280;9208;42.688;23.404;2023-06-14T01:25:18;95153.41;;;18.98;100.00
18167;BME280;9208;42.688;23.404;2023-06-14T01:27:48;95158.97;;;18.98;100.00
18167;BME280;9208;42.688;23.404;2023-06-14T01:30:15;95159.94;;;19.01;100.00
18167;BME280;9208;42.688;23.404;2023-06-14T01:32:40;95152.72;;;19.05;100.00
18167;BME280;9208;42.688;23.404;2023-06-14T01:35:06;95156.28;;;19.06;100.00
18167;BME280;9208;42.688;23.404;2023-06-14T01:37:32;95160.13;;;19.03;100.00
18167;BME280;9208;42.688;23.404;2023-06-14T01:39:58;95158.50;;;19.07;100.00
18167;BME280;9208;42.688;23.404;2023-06-14T01:42:24;95157.22;;;19.08;100.00
18167;BME280;9208;42.688;23.404;2023-06-14T01:44:51;95152.94;;;19.07;100.00
18167;BME280;9208;42.688;23.404;2023-06-14T01:47:19;95147.41;;;19.07;100.00
18167;BME280;9208;42.688;23.404;2023-06-14T01:49:46;95151.13;;;19.10;100.00
18167;BME280;9208;42.688;23.404;2023-06-14T01:52:12;95145.91;;;19.06;100.00
18167;BME280;9208;42.688;23.404;2023-06-14T01:54:37;95142.78;;;19.10;100.00
18167;BME280;9208;42.688;23.404;2023-06-14T01:57:07;95141.16;;;19.14;100.00
18167;BME280;9208;42.688;23.404;2023-06-14T01:59:33;95143.13;;;19.06;100.00
18167;BME280;9208;42.688;23.404;2023-06-14T02:02:01;95151.25;;;19.04;100.00
18167;BME280;9208;42.688;23.404;2023-06-14T02:04:26;95153.16;;;19.09;100.00
18167;BME280;9208;42.688;23.404;2023-06-14T02:06:51;95156.28;;;19.06;100.00
18167;BME280;9208;42.688;23.404;2023-06-14T02:09:17;95159.38;;;19.02;100.00
18167;BME280;9208;42.688;23.404;2023-06-14T02:11:43;95166.44;;;19.03;100.00
18167;BME280;9208;42.688;23.404;2023-06-14T02:14:08;95177.53;;;19.03;100.00
18167;BME280;9208;42.688;23.404;2023-06-14T02:16:36;95176.78;;;19.03;100.00
18167;BME280;9208;42.688;23.404;2023-06-14T02:19:02;95178.06;;;19.02;100.00
18167;BME280;9208;42.688;23.404;2023-06-14T02:21:27;95180.66;;;19.00;100.00
18167;BME280;9208;42.688;23.404;2023-06-14T02:23:53;95181.63;;;19.02;100.00
18167;BME280;9208;42.688;23.404;2023-06-14T02:26:18;95179.78;;;19.05;100.00
18167;BME280;9208;42.688;23.404;2023-06-14T02:28:44;95183.53;;;19.07;100.00
18167;BME280;9208;42.688;23.404;2023-06-14T02:31:09;95178.84;;;19.02;100.00
18167;BME280;9208;42.688;23.404;2023-06-14T02:33:34;95189.19;;;19.02;100.00
18167;BME280;9208;42.688;23.404;2023-06-14T02:36:01;95189.94;;;19.02;100.00
18167;BME280;9208;42.688;23.404;2023-06-14T02:38:27;95192.31;;;18.98;100.00
18167;BME280;9208;42.688;23.404;2023-06-14T02:40:53;95186.22;;;19.00;100.00
18167;BME280;9208;42.688;23.404;2023-06-14T02:43:18;95185.03;;;18.95;100.00
18167;BME280;9208;42.688;23.404;2023-06-14T02:45:44;95185.81;;;18.96;100.00
18167;BME280;9208;42.688;23.404;2023-06-14T02:48:10;95179.50;;;18.95;100.00
18167;BME280;9208;42.688;23.404;2023-06-14T02:50:36;95184.63;;;18.91;100.00
18167;BME280;9208;42.688;23.404;2023-06-14T02:53:01;95189.66;;;18.93;100.00
18167;BME280;9208;42.688;23.404;2023-06-14T02:55:28;95188.16;;;18.92;100.00
18167;BME280;9208;42.688;23.404;2023-06-14T02:57:53;95193.19;;;18.93;100.00
18167;BME280;9208;42.688;23.404;2023-06-14T03:00:19;95189.03;;;18.87;100.00
18167;BME280;9208;42.688;23.404;2023-06-14T03:02:45;95193.63;;;18.84;100.00
18167;BME280;9208;42.688;23.404;2023-06-14T03:05:11;95197.47;;;18.81;100.00
18167;BME280;9208;42.688;23.404;2023-06-14T03:07:36;95188.94;;;18.79;100.00
18167;BME280;9208;42.688;23.404;2023-06-14T03:10:09;95196.31;;;18.77;100.00
18167;BME280;9208;42.688;23.404;2023-06-14T03:12:35;95198.34;;;18.76;100.00
18167;BME280;9208;42.688;23.404;2023-06-14T03:15:02;95198.75;;;18.80;100.00
18167;BME280;9208;42.688;23.404;2023-06-14T03:17:27;95196.63;;;18.73;100.00
18167;BME280;9208;42.688;23.404;2023-06-14T03:19:55;95193.22;;;18.67;100.00
18167;BME280;9208;42.688;23.404;2023-06-14T03:22:20;95197.59;;;18.63;100.00
18167;BME280;9208;42.688;23.404;2023-06-14T03:24:47;95197.50;;;18.68;100.00
18167;BME280;9208;42.688;23.404;2023-06-14T03:27:13;95203.28;;;18.70;100.00
18167;BME280;9208;42.688;23.404;2023-06-14T03:29:39;95205.28;;;18.70;100.00
18167;BME280;9208;42.688;23.404;2023-06-14T03:32:05;95201.03;;;18.69;100.00
18167;BME280;9208;42.688;23.404;2023-06-14T03:34:31;95209.56;;;18.71;100.00
18167;BME280;9208;42.688;23.404;2023-06-14T03:36:56;95201.56;;;18.67;100.00
18167;BME280;9208;42.688;23.404;2023-06-14T03:39:22;95197.41;;;18.61;100.00
18167;BME280;9208;42.688;23.404;2023-06-14T03:41:47;95202.44;;;18.62;100.00
18167;BME280;9208;42.688;23.404;2023-06-14T03:44:15;95203.91;;;18.63;100.00
18167;BME280;9208;42.688;23.404;2023-06-14T03:46:41;95206.38;;;18.67;100.00
18167;BME280;9208;42.688;23.404;2023-06-14T03:49:07;95213.19;;;18.66;100.00
18167;BME280;9208;42.688;23.404;2023-06-14T03:51:32;95212.47;;;18.65;100.00
18167;BME280;9208;42.688;23.404;2023-06-14T03:54:00;95208.41;;;18.66;100.00
18167;BME280;9208;42.688;23.404;2023-06-14T03:56:26;95209.91;;;18.67;100.00
18167;BME280;9208;42.688;23.404;2023-06-14T03:58:52;95215.88;;;18.71;100.00
18167;BME280;9208;42.688;23.404;2023-06-14T04:01:17;95212.56;;;18.73;100.00
18167;BME280;9208;42.688;23.404;2023-06-14T04:03:43;95216.06;;;18.73;100.00
18167;BME280;9208;42.688;23.404;2023-06-14T04:06:08;95212.34;;;18.71;100.00
18167;BME280;9208;42.688;23.404;2023-06-14T04:08:34;95221.84;;;18.75;100.00
18167;BME280;9208;42.688;23.404;2023-06-14T04:11:01;95223.13;;;18.74;100.00
18167;BME280;9208;42.688;23.404;2023-06-14T04:13:26;95217.78;;;18.76;100.00
18167;BME280;9208;42.688;23.404;2023-06-14T04:15:52;95219.81;;;18.76;100.00
18167;BME280;9208;42.688;23.404;2023-06-14T04:18:17;95220.38;;;18.74;100.00
18167;BME280;9208;42.688;23.404;2023-06-14T04:20:44;95221.31;;;18.77;100.00
18167;BME280;9208;42.688;23.404;2023-06-14T04:23:14;95219.28;;;18.77;100.00
18167;BME280;9208;42.688;23.404;2023-06-14T04:25:40;95214.47;;;18.78;100.00
18167;BME280;9208;42.688;23.404;2023-06-14T04:28:10;95222.47;;;18.81;100.00
18167;BME280;9208;42.688;23.404;2023-06-14T04:30:36;95220.44;;;18.82;100.00
18167;BME280;9208;42.688;23.404;2023-06-14T04:33:04;95217.13;;;18.83;100.00
18167;BME280;9208;42.688;23.404;2023-06-14T04:35:31;95220.88;;;18.86;100.00
18167;BME280;9208;42.688;23.404;2023-06-14T04:37:58;95217.00;;;18.89;100.00
18167;BME280;9208;42.688;23.404;2023-06-14T04:40:26;95220.97;;;18.93;100.00
18167;BME280;9208;42.688;23.404;2023-06-14T04:42:55;95228.19;;;18.96;100.00
18167;BME280;9208;42.688;23.404;2023-06-14T04:45:20;95222.66;;;18.96;100.00
18167;BME280;9208;42.688;23.404;2023-06-14T04:47:49;95232.50;;;18.97;100.00
18167;BME280;9208;42.688;23.404;2023-06-14T04:50:15;95221.03;;;19.01;100.00
18167;BME280;9208;42.688;23.404;2023-06-14T04:52:42;95213.66;;;19.03;100.00
18167;BME280;9208;42.688;23.404;2023-06-14T04:55:08;95221.56;;;18.99;100.00
18167;BME280;9208;42.688;23.404;2023-06-14T04:57:33;95240.56;;;19.08;100.00
18167;BME280;9208;42.688;23.404;2023-06-14T05:00:00;95242.72;;;19.15;100.00
18167;BME280;9208;42.688;23.404;2023-06-14T05:02:29;95243.66;;;19.18;100.00
18167;BME280;9208;42.688;23.404;2023-06-14T05:04:55;95236.47;;;19.22;100.00
18167;BME280;9208;42.688;23.404;2023-06-14T05:07:22;95245.47;;;19.28;100.00
18167;BME280;9208;42.688;23.404;2023-06-14T05:09:49;95245.47;;;19.28;100.00
18167;BME280;9208;42.688;23.404;2023-06-14T05:12:14;95243.09;;;19.32;100.00
18167;BME280;9208;42.688;23.404;2023-06-14T05:14:44;95241.47;;;19.37;100.00
18167;BME280;9208;42.688;23.404;2023-06-14T05:17:10;95241.13;;;19.40;100.00
18167;BME280;9208;42.688;23.404;2023-06-14T05:19:35;95239.72;;;19.47;100.00
18167;BME280;9208;42.688;23.404;2023-06-14T05:22:00;95251.59;;;19.47;100.00
18167;BME280;9208;42.688;23.404;2023-06-14T05:24:28;95247.19;;;19.52;100.00
18167;BME280;9208;42.688;23.404;2023-06-14T05:26:56;95256.47;;;19.54;100.00
18167;BME280;9208;42.688;23.404;2023-06-14T05:29:21;95258.84;;;19.50;100.00
18167;BME280;9208;42.688;23.404;2023-06-14T05:31:46;95260.47;;;19.46;100.00
18167;BME280;9208;42.688;23.404;2023-06-14T05:34:12;95253.84;;;19.49;100.00
18167;BME280;9208;42.688;23.404;2023-06-14T05:36:37;95257.03;;;19.53;100.00
18167;BME280;9208;42.688;23.404;2023-06-14T05:39:04;95273.38;;;19.56;100.00
18167;BME280;9208;42.688;23.404;2023-06-14T05:41:31;95267.47;;;19.60;100.00
18167;BME280;9208;42.688;23.404;2023-06-14T05:43:56;95267.69;;;19.62;100.00
18167;BME280;9208;42.688;23.404;2023-06-14T05:46:23;95273.25;;;19.62;100.00
18167;BME280;9208;42.688;23.404;2023-06-14T05:48:54;95270.66;;;19.64;100.00
18167;BME280;9208;42.688;23.404;2023-06-14T05:51:20;95271.63;;;19.66;100.00
18167;BME280;9208;42.688;23.404;2023-06-14T05:53:46;95277.06;;;19.72;100.00
18167;BME280;9208;42.688;23.404;2023-06-14T05:56:13;95266.47;;;19.70;100.00
18167;BME280;9208;42.688;23.404;2023-06-14T05:58:39;95275.41;;;19.76;100.00
18167;BME280;9208;42.688;23.404;2023-06-14T06:01:04;95280.09;;;19.81;100.00
18167;BME280;9208;42.688;23.404;2023-06-14T06:03:30;95277.53;;;19.83;100.00
18167;BME280;9208;42.688;23.404;2023-06-14T06:05:55;95275.16;;;19.87;100.00
18167;BME280;9208;42.688;23.404;2023-06-14T06:08:21;95276.78;;;19.83;100.00
18167;BME280;9208;42.688;23.404;2023-06-14T06:10:46;95277.00;;;19.85;100.00
18167;BME280;9208;42.688;23.404;2023-06-14T06:13:12;95275.16;;;19.87;100.00
18167;BME280;9208;42.688;23.404;2023-06-14T06:15:37;95283.69;;;19.89;100.00
18167;BME280;9208;42.688;23.404;2023-06-14T06:18:03;95280.44;;;19.98;100.00
18167;BME280;9208;42.688;23.404;2023-06-14T06:20:29;95279.16;;;19.99;100.00
18167;BME280;9208;42.688;23.404;2023-06-14T06:22:57;95279.16;;;19.99;100.00
18167;BME280;9208;42.688;23.404;2023-06-14T06:25:23;95283.63;;;20.02;100.00
18167;BME280;9208;42.688;23.404;2023-06-14T06:27:51;95291.22;;;20.02;100.00
18167;BME280;9208;42.688;23.404;2023-06-14T06:30:16;95280.78;;;19.95;100.00
18167;BME280;9208;42.688;23.404;2023-06-14T06:32:41;95281.75;;;19.97;100.00
18167;BME280;9208;42.688;23.404;2023-06-14T06:35:07;95292.53;;;20.01;100.00
18167;BME280;9208;42.688;23.404;2023-06-14T06:37:36;95294.31;;;20.11;100.00
18167;BME280;9208;42.688;23.404;2023-06-14T06:40:01;95289.69;;;20.14;100.00
18167;BME280;9208;42.688;23.404;2023-06-14T06:42:29;95279.97;;;20.07;100.00
18167;BME280;9208;42.688;23.404;2023-06-14T06:44:54;95295.13;;;20.19;100.00
18167;BME280;9208;42.688;23.404;2023-06-14T06:47:20;95293.47;;;20.24;100.00
18167;BME280;9208;42.688;23.404;2023-06-14T06:49:45;95300.81;;;20.34;100.00
18167;BME280;9208;42.688;23.404;2023-06-14T06:52:10;95295.66;;;20.38;100.00
18167;BME280;9208;42.688;23.404;2023-06-14T06:54:36;95299.25;;;20.46;100.00
18167;BME280;9208;42.688;23.404;2023-06-14T06:57:01;95300.38;;;20.51;100.00
18167;BME280;9208;42.688;23.404;2023-06-14T06:59:27;95296.31;;;20.52;100.00
18167;BME280;9208;42.688;23.404;2023-06-14T07:01:55;95297.44;;;20.56;100.00
18167;BME280;9208;42.688;23.404;2023-06-14T07:04:20;95298.94;;;20.57;100.00
18167;BME280;9208;42.688;23.404;2023-06-14T07:06:46;95303.06;;;20.64;100.00
18167;BME280;9208;42.688;23.404;2023-06-14T07:09:12;95295.81;;;20.61;100.00
18167;BME280;9208;42.688;23.404;2023-06-14T07:11:39;95292.63;;;20.57;100.00
18167;BME280;9208;42.688;23.404;2023-06-14T07:14:05;95306.03;;;20.58;100.00
18167;BME280;9208;42.688;23.404;2023-06-14T07:16:30;95304.22;;;20.68;100.00
18167;BME280;9208;42.688;23.404;2023-06-14T07:18:56;95298.44;;;20.66;100.00
18167;BME280;9208;42.688;23.404;2023-06-14T07:21:21;95298.66;;;20.68;100.00
18167;BME280;9208;42.688;23.404;2023-06-14T07:23:47;95295.50;;;20.72;100.00
18167;BME280;9208;42.688;23.404;2023-06-14T07:26:12;95294.97;;;20.73;100.00
18167;BME280;9208;42.688;23.404;2023-06-14T07:28:38;95285.00;;;20.85;100.00
18167;BME280;9208;42.688;23.404;2023-06-14T07:31:03;95286.09;;;20.82;100.00
18167;BME280;9208;42.688;23.404;2023-06-14T07:33:29;95289.19;;;20.71;100.00
18167;BME280;9208;42.688;23.404;2023-06-14T07:35:54;95287.69;;;20.70;100.00
18167;BME280;9208;42.688;23.404;2023-06-14T07:38:20;95294.59;;;20.77;100.00
18167;BME280;9208;42.688;23.404;2023-06-14T07:40:46;95279.97;;;20.84;100.00
18167;BME280;9208;42.688;23.404;2023-06-14T07:43:11;95285.94;;;20.88;100.00
18167;BME280;9208;42.688;23.404;2023-06-14T07:45:37;95279.97;;;20.84;100.00
18167;BME280;9208;42.688;23.404;2023-06-14T07:48:03;95288.16;;;20.89;100.00
18167;BME280;9208;42.688;23.404;2023-06-14T07:50:28;95288.03;;;20.95;100.00
18167;BME280;9208;42.688;23.404;2023-06-14T07:52:54;95288.41;;;20.91;100.00
18167;BME280;9208;42.688;23.404;2023-06-14T07:55:20;95296.84;;;21.06;100.00
18167;BME280;9208;42.688;23.404;2023-06-14T07:57:45;95291.50;;;21.16;100.00
18167;BME280;9208;42.688;23.404;2023-06-14T08:00:12;95303.97;;;21.22;100.00
18167;BME280;9208;42.688;23.404;2023-06-14T08:02:41;95312.00;;;21.33;100.00
18167;BME280;9208;42.688;23.404;2023-06-14T08:05:09;95310.38;;;21.45;100.00
18167;BME280;9208;42.688;23.404;2023-06-14T08:07:36;95315.22;;;21.52;100.00
18167;BME280;9208;42.688;23.404;2023-06-14T08:10:02;95306.13;;;21.52;100.00
18167;BME280;9208;42.688;23.404;2023-06-14T08:12:27;95326.06;;;21.63;100.00
18167;BME280;9208;42.688;23.404;2023-06-14T08:14:52;95324.25;;;21.73;100.00
18167;BME280;9208;42.688;23.404;2023-06-14T08:17:18;95326.72;;;21.84;100.00
18167;BME280;9208;42.688;23.404;2023-06-14T08:19:43;95333.25;;;21.94;100.00
18167;BME280;9208;42.688;23.404;2023-06-14T08:22:09;95331.94;;;22.03;100.00
18167;BME280;9208;42.688;23.404;2023-06-14T08:24:36;95329.53;;;21.99;100.00
18167;BME280;9208;42.688;23.404;2023-06-14T08:27:02;95336.59;;;21.93;100.00
18167;BME280;9208;42.688;23.404;2023-06-14T08:29:28;95329.53;;;21.99;100.00
18167;BME280;9208;42.688;23.404;2023-06-14T08:31:56;95328.03;;;21.98;100.00
18167;BME280;9208;42.688;23.404;2023-06-14T08:34:21;95328.22;;;22.08;100.00
18167;BME280;9208;42.688;23.404;2023-06-14T08:36:51;95332.53;;;22.16;100.00
18167;BME280;9208;42.688;23.404;2023-06-14T08:39:17;95332.00;;;22.25;100.00
18167;BME280;9208;42.688;23.404;2023-06-14T08:41:46;95333.66;;;22.28;100.00
18167;BME280;9208;42.688;23.404;2023-06-14T08:44:14;95324.16;;;22.31;100.00
18167;BME280;9208;42.688;23.404;2023-06-14T08:46:41;95324.91;;;22.39;100.00
18167;BME280;9208;42.688;23.404;2023-06-14T08:49:08;95314.53;;;22.47;100.00
18167;BME280;9208;42.688;23.404;2023-06-14T08:51:36;95312.28;;;22.53;100.00
18167;BME280;9208;42.688;23.404;2023-06-14T08:54:03;95314.69;;;22.57;100.00
18167;BME280;9208;42.688;23.404;2023-06-14T08:56:30;95307.78;;;22.43;100.00
18167;BME280;9208;42.688;23.404;2023-06-14T08:58:59;95304.44;;;22.37;100.00
18167;BME280;9208;42.688;23.404;2023-06-14T09:01:33;95319.34;;;22.47;100.00
18167;BME280;9208;42.688;23.404;2023-06-14T09:03:59;95317.88;;;22.46;100.00
18167;BME280;9208;42.688;23.404;2023-06-14T09:06:25;95306.09;;;22.40;100.00
18167;BME280;9208;42.688;23.404;2023-06-14T09:08:54;95310.56;;;22.35;100.00
18167;BME280;9208;42.688;23.404;2023-06-14T09:11:20;95309.44;;;22.23;100.00
18167;BME280;9208;42.688;23.404;2023-06-14T09:13:47;95308.72;;;22.23;100.00
18167;BME280;9208;42.688;23.404;2023-06-14T09:16:12;95309.06;;;22.19;100.00
18167;BME280;9208;42.688;23.404;2023-06-14T09:18:40;95299.22;;;22.18;100.00
18167;BME280;9208;42.688;23.404;2023-06-14T09:21:09;95296.41;;;22.33;100.00
18167;BME280;9208;42.688;23.404;2023-06-14T09:23:39;95295.69;;;22.40;100.00
18167;BME280;9208;42.688;23.404;2023-06-14T09:26:10;95302.94;;;22.43;100.00
18167;BME280;9208;42.688;23.404;2023-06-14T09:28:36;95305.22;;;22.52;100.00
18167;BME280;9208;42.688;23.404;2023-06-14T09:31:07;95300.91;;;22.66;100.00
18167;BME280;9208;42.688;23.404;2023-06-14T09:33:34;95300.69;;;22.79;100.00
18167;BME280;9208;42.688;23.404;2023-06-14T09:35:59;95310.53;;;22.88;100.00
18167;BME280;9208;42.688;23.404;2023-06-14T09:38:25;95316.09;;;23.03;100.00
18167;BME280;9208;42.688;23.404;2023-06-14T09:40:51;95299.13;;;23.08;100.00
18167;BME280;9208;42.688;23.404;2023-06-14T09:43:17;95298.00;;;23.19;100.00
18167;BME280;9208;42.688;23.404;2023-06-14T09:45:44;95291.81;;;23.28;100.00
18167;BME280;9208;42.688;23.404;2023-06-14T09:48:11;95290.47;;;23.36;100.00
18167;BME280;9208;42.688;23.404;2023-06-14T09:50:44;95290.13;;;23.32;100.00
18167;BME280;9208;42.688;23.404;2023-06-14T09:53:11;95283.59;;;23.30;100.00
18167;BME280;9208;42.688;23.404;2023-06-14T09:55:38;95287.31;;;23.40;100.00
18167;BME280;9208;42.688;23.404;2023-06-14T09:58:07;95281.47;;;23.53;100.00
18167;BME280;9208;42.688;23.404;2023-06-14T10:00:33;95269.66;;;23.62;100.00
18167;BME280;9208;42.688;23.404;2023-06-14T10:03:12;95276.84;;;23.72;100.00
18167;BME280;9208;42.688;23.404;2023-06-14T10:05:39;95272.75;;;23.73;100.00
18167;BME280;9208;42.688;23.404;2023-06-14T10:08:13;95276.13;;;23.72;100.00
18167;BME280;9208;42.688;23.404;2023-06-14T10:10:42;95272.97;;;23.68;100.00
18167;BME280;9208;42.688;23.404;2023-06-14T10:13:08;95272.41;;;23.69;100.00
18167;BME280;9208;42.688;23.404;2023-06-14T10:18:28;95262.63;;;23.78;100.00
18167;BME280;9208;42.688;23.404;2023-06-14T10:21:13;95252.19;;;23.78;100.00
18167;BME280;9208;42.688;23.404;2023-06-14T10:23:42;95254.25;;;23.78;100.00
18167;BME280;9208;42.688;23.404;2023-06-14T10:26:18;95252.41;;;23.73;100.00
18167;BME280;9208;42.688;23.404;2023-06-14T10:28:56;95253.16;;;23.73;100.00
18167;BME280;9208;42.688;23.404;2023-06-14T10:31:22;95253.50;;;23.77;100.00
18167;BME280;9208;42.688;23.404;2023-06-14T10:33:56;95258.13;;;23.90;100.00
18167;BME280;9208;42.688;23.404;2023-06-14T10:39:07;95245.47;;;24.06;100.00
18167;BME280;9208;42.688;23.404;2023-06-14T10:41:37;95243.91;;;23.95;100.00
18167;BME280;9208;42.688;23.404;2023-06-14T10:46:38;95236.16;;;24.03;100.00
18167;BME280;9208;42.688;23.404;2023-06-14T10:49:06;95238.88;;;24.18;100.00
18167;BME280;9208;42.688;23.404;2023-06-14T10:51:41;95229.53;;;24.40;100.00
18167;BME280;9208;42.688;23.404;2023-06-14T10:54:15;95227.66;;;24.60;100.00
18167;BME280;9208;42.688;23.404;2023-06-14T10:56:51;95230.22;;;24.65;100.00
18167;BME280;9208;42.688;23.404;2023-06-14T10:59:19;95221.47;;;24.61;100.00
18167;BME280;9208;42.688;23.404;2023-06-14T11:04:50;95216.56;;;24.45;100.00
18167;BME280;9208;42.688;23.404;2023-06-14T11:12:48;95196.63;;;24.41;100.00
18167;BME280;9208;42.688;23.404;2023-06-14T11:15:14;95207.03;;;24.48;100.00
18167;BME280;9208;42.688;23.404;2023-06-14T11:17:50;95209.75;;;24.55;100.00
18167;BME280;9208;42.688;23.404;2023-06-14T11:20:17;95202.25;;;24.58;100.00
18167;BME280;9208;42.688;23.404;2023-06-14T11:22:42;95208.41;;;24.56;100.00
18167;BME280;9208;42.688;23.404;2023-06-14T11:25:09;95198.09;;;24.42;100.00
18167;BME280;9208;42.688;23.404;2023-06-14T11:27:35;95196.81;;;24.43;100.00
18167;BME280;9208;42.688;23.404;2023-06-14T11:30:00;95190.22;;;24.48;100.00
18167;BME280;9208;42.688;23.404;2023-06-14T11:32:26;95182.53;;;24.48;100.00
18167;BME280;9208;42.688;23.404;2023-06-14T11:34:51;95194.00;;;24.60;100.00
18167;BME280;9208;42.688;23.404;2023-06-14T11:37:17;95200.81;;;24.74;100.00
18167;BME280;9208;42.688;23.404;2023-06-14T11:39:44;95202.53;;;24.86;100.00
18167;BME280;9208;42.688;23.404;2023-06-14T11:42:14;95208.63;;;24.92;100.00
18167;BME280;9208;42.688;23.404;2023-06-14T11:44:40;95190.41;;;25.01;100.00
18167;BME280;9208;42.688;23.404;2023-06-14T11:47:05;95178.00;;;25.04;100.00
18167;BME280;9208;42.688;23.404;2023-06-14T11:49:35;95171.28;;;25.16;100.00
18167;BME280;9208;42.688;23.404;2023-06-14T11:52:01;95176.28;;;25.08;100.00
18167;BME280;9208;42.688;23.404;2023-06-14T11:54:26;95173.19;;;25.14;100.00
18167;BME280;9208;42.688;23.404;2023-06-14T11:56:52;95176.63;;;25.22;100.00
18167;BME280;9208;42.688;23.404;2023-06-14T11:59:18;95170.88;;;25.20;100.00
18167;BME280;9208;42.688;23.404;2023-06-14T12:01:43;95157.25;;;25.33;100.00
18167;BME280;9208;42.688;23.404;2023-06-14T12:04:09;95155.66;;;25.40;100.00
18167;BME280;9208;42.688;23.404;2023-06-14T12:06:34;95154.97;;;25.49;100.00
18167;BME280;9208;42.688;23.404;2023-06-14T12:09:05;95155.75;;;25.59;100.00
18167;BME280;9208;42.688;23.404;2023-06-14T12:11:43;95147.94;;;25.67;100.00
18167;BME280;9208;42.688;23.404;2023-06-14T12:14:09;95166.78;;;25.83;100.00
18167;BME280;9208;42.688;23.404;2023-06-14T12:16:37;95158.09;;;25.89;100.00
18167;BME280;9208;42.688;23.404;2023-06-14T12:19:18;95147.44;;;25.88;100.00
18167;BME280;9208;42.688;23.404;2023-06-14T12:21:46;95145.19;;;25.77;100.00
18167;BME280;9208;42.688;23.404;2023-06-14T12:24:16;95150.72;;;25.58;100.00
18167;BME280;9208;42.688;23.404;2023-06-14T12:26:41;95162.53;;;25.56;99.01
18167;BME280;9208;42.688;23.404;2023-06-14T12:29:07;95162.53;;;25.56;99.19
18167;BME280;9208;42.688;23.404;2023-06-14T12:31:33;95143.09;;;25.67;100.00
18167;BME280;9208;42.688;23.404;2023-06-14T12:33:59;95148.00;;;25.86;99.77
18167;BME280;9208;42.688;23.404;2023-06-14T12:36:25;95147.97;;;26.03;99.27
18167;BME280;9208;42.688;23.404;2023-06-14T12:38:51;95139.56;;;26.13;99.30
18167;BME280;9208;42.688;23.404;2023-06-14T12:41:19;95149.78;;;26.18;97.73
18167;BME280;9208;42.688;23.404;2023-06-14T12:43:46;95152.72;;;26.10;96.70
18167;BME280;9208;42.688;23.404;2023-06-14T12:46:12;95139.25;;;26.09;97.94
18167;BME280;9208;42.688;23.404;2023-06-14T12:48:37;95123.16;;;26.09;98.15
18167;BME280;9208;42.688;23.404;2023-06-14T12:51:02;95117.97;;;26.15;97.79
18167;BME280;9208;42.688;23.404;2023-06-14T12:53:28;95126.41;;;26.15;96.56
18167;BME280;9208;42.688;23.404;2023-06-14T12:55:53;95119.44;;;26.16;95.99
18167;BME280;9208;42.688;23.404;2023-06-14T12:58:19;95106.56;;;26.04;95.77
18167;BME280;9208;42.688;23.404;2023-06-14T13:00:45;95109.50;;;26.06;95.80
18167;BME280;9208;42.688;23.404;2023-06-14T13:03:14;95124.78;;;26.22;94.39
18167;BME280;9208;42.688;23.404;2023-06-14T13:05:39;95140.91;;;26.21;91.79